createdAt,value
2022-08-17T00:00:34.306Z,15.46
2022-08-17T00:03:08.365Z,15.41
2022-08-17T00:05:43.709Z,15.40
2022-08-17T00:08:12.355Z,15.40
2022-08-17T00:10:40.963Z,15.36
2022-08-17T00:13:16.485Z,15.40
2022-08-17T00:15:45.178Z,15.43
2022-08-17T00:19:02.079Z,15.46
2022-08-17T00:21:05.429Z,15.45
2022-08-17T00:23:39.816Z,15.45
2022-08-17T00:26:16.232Z,15.46
2022-08-17T00:29:04.846Z,15.45
2022-08-17T00:31:33.677Z,15.44
2022-08-17T00:34:03.362Z,15.42
2022-08-17T00:36:31.560Z,15.40
2022-08-17T00:38:59.922Z,15.39
2022-08-17T00:41:29.819Z,15.36
2022-08-17T00:44:02.337Z,15.35
2022-08-17T00:46:33.006Z,15.38
2022-08-17T00:49:02.707Z,15.39
2022-08-17T00:51:34.913Z,15.37
2022-08-17T00:54:08.121Z,15.34
2022-08-17T00:56:42.245Z,15.33
2022-08-17T00:59:12.831Z,15.32
2022-08-17T01:01:41.894Z,15.24
2022-08-17T01:04:14.134Z,15.19
2022-08-17T01:06:47.020Z,15.25
2022-08-17T01:09:17.070Z,15.29
2022-08-17T01:11:46.535Z,15.31
2022-08-17T01:14:14.845Z,15.23
2022-08-17T01:16:43.339Z,15.22
2022-08-17T01:19:19.207Z,15.23
2022-08-17T01:21:54.262Z,15.26
2022-08-17T01:24:24.455Z,15.24
2022-08-17T01:26:52.930Z,15.22
2022-08-17T01:29:26.083Z,15.23
2022-08-17T01:31:58.100Z,15.21
2022-08-17T01:34:33.465Z,15.22
2022-08-17T01:37:11.140Z,15.20
2022-08-17T01:39:45.218Z,15.24
2022-08-17T01:42:19.513Z,15.19
2022-08-17T01:44:48.033Z,15.19
2022-08-17T01:47:16.203Z,15.19
2022-08-17T01:49:45.848Z,15.14
2022-08-17T01:52:14.617Z,15.14
2022-08-17T01:54:47.933Z,15.08
2022-08-17T01:57:16.246Z,15.06
2022-08-17T01:59:44.388Z,15.09
2022-08-17T02:02:12.645Z,15.09
2022-08-17T02:04:59.265Z,15.11
2022-08-17T02:07:27.492Z,15.14
2022-08-17T02:09:57.301Z,15.10
2022-08-17T02:12:37.405Z,15.13
2022-08-17T02:15:09.445Z,15.15
2022-08-17T02:17:37.601Z,15.11
2022-08-17T02:20:07.513Z,15.15
2022-08-17T02:22:37.034Z,15.11
2022-08-17T02:25:09.809Z,15.09
2022-08-17T02:27:39.376Z,15.05
2022-08-17T02:30:59.177Z,15.04
2022-08-17T02:32:59.132Z,15.00
2022-08-17T02:35:32.664Z,15.02
2022-08-17T02:38:01.467Z,15.06
2022-08-17T02:40:36.239Z,15.07
2022-08-17T02:43:05.437Z,15.05
2022-08-17T02:45:33.679Z,15.04
2022-08-17T02:48:01.973Z,15.05
2022-08-17T02:50:30.546Z,15.04
2022-08-17T02:53:01.754Z,15.04
2022-08-17T02:55:35.544Z,15.04
2022-08-17T02:58:03.852Z,15.03
2022-08-17T03:00:34.595Z,15.06
2022-08-17T03:03:04.448Z,15.05
2022-08-17T03:05:34.714Z,15.04
2022-08-17T03:08:03.558Z,15.04
2022-08-17T03:10:33.733Z,15.00
2022-08-17T03:13:02.303Z,15.04
2022-08-17T03:15:33.578Z,15.08
2022-08-17T03:18:03.794Z,15.08
2022-08-17T03:20:34.132Z,15.10
2022-08-17T03:23:03.124Z,15.14
2022-08-17T03:25:34.979Z,15.13
2022-08-17T03:28:03.018Z,15.08
2022-08-17T03:30:32.210Z,15.15
2022-08-17T03:33:03.222Z,15.18
2022-08-17T03:35:33.775Z,15.18
2022-08-17T03:38:02.456Z,15.15
2022-08-17T03:40:34.602Z,15.12
2022-08-17T03:43:23.353Z,15.12
2022-08-17T03:46:27.252Z,15.09
2022-08-17T03:49:15.736Z,15.05
2022-08-17T03:52:01.198Z,15.00
2022-08-17T03:54:46.945Z,15.02
2022-08-17T03:57:16.889Z,15.03
2022-08-17T03:59:45.397Z,15.06
2022-08-17T04:02:19.153Z,15.07
2022-08-17T04:04:50.978Z,15.08
2022-08-17T04:07:19.950Z,15.05
2022-08-17T04:09:48.185Z,15.06
2022-08-17T04:12:19.051Z,15.08
2022-08-17T04:14:53.365Z,15.07
2022-08-17T04:17:24.737Z,15.06
2022-08-17T04:19:53.247Z,15.08
2022-08-17T04:22:30.205Z,15.11
2022-08-17T04:25:03.768Z,15.11
2022-08-17T04:27:33.385Z,15.11
2022-08-17T04:30:01.880Z,15.12
2022-08-17T04:33:04.769Z,15.06
2022-08-17T04:35:23.355Z,15.03
2022-08-17T04:37:51.988Z,15.07
2022-08-17T04:40:38.982Z,15.11
2022-08-17T04:43:10.920Z,15.11
2022-08-17T04:45:55.611Z,15.11
2022-08-17T04:48:28.088Z,15.06
2022-08-17T04:51:05.282Z,15.06
2022-08-17T04:53:33.828Z,15.04
2022-08-17T04:56:02.567Z,15.06
2022-08-17T04:58:32.316Z,14.96
2022-08-17T05:01:00.611Z,14.96
2022-08-17T05:03:28.869Z,14.92
2022-08-17T05:05:57.029Z,14.89
2022-08-17T05:08:25.369Z,14.92
2022-08-17T05:10:53.881Z,14.90
2022-08-17T05:13:24.335Z,14.90
2022-08-17T05:15:57.158Z,14.87
2022-08-17T05:18:25.641Z,14.85
2022-08-17T05:20:54.075Z,14.81
2022-08-17T05:23:24.994Z,14.78
2022-08-17T05:25:56.466Z,14.76
2022-08-17T05:28:26.716Z,14.74
2022-08-17T05:30:58.679Z,14.76
2022-08-17T05:33:29.397Z,14.79
2022-08-17T05:35:59.746Z,14.81
2022-08-17T05:38:30.060Z,14.77
2022-08-17T05:40:59.291Z,14.77
2022-08-17T05:43:29.289Z,14.80
2022-08-17T05:46:06.900Z,14.80
2022-08-17T05:48:39.941Z,14.81
2022-08-17T05:51:32.502Z,14.80
2022-08-17T05:54:22.294Z,14.76
2022-08-17T05:57:06.436Z,14.82
2022-08-17T05:59:43.510Z,14.81
2022-08-17T06:02:22.791Z,14.83
2022-08-17T06:05:18.633Z,14.82
2022-08-17T06:07:51.330Z,14.86
2022-08-17T06:10:28.170Z,14.86
2022-08-17T06:13:04.653Z,14.87
2022-08-17T06:15:43.216Z,14.88
2022-08-17T06:18:18.608Z,14.90
2022-08-17T06:20:51.822Z,14.92
2022-08-17T06:23:30.762Z,14.86
2022-08-17T06:26:03.842Z,14.88
2022-08-17T06:28:39.336Z,14.88
2022-08-17T06:31:14.083Z,14.88
2022-08-17T06:33:47.581Z,14.89
2022-08-17T06:36:30.753Z,14.85
2022-08-17T06:39:17.431Z,14.82
2022-08-17T06:41:56.078Z,14.78
2022-08-17T06:44:43.492Z,14.77
2022-08-17T06:47:28.881Z,14.82
2022-08-17T06:50:09.629Z,14.80
2022-08-17T06:52:47.505Z,14.88
2022-08-17T06:55:19.638Z,14.90
2022-08-17T06:57:52.912Z,14.92
2022-08-17T07:00:24.150Z,14.93
2022-08-17T07:02:59.626Z,14.96
2022-08-17T07:05:36.531Z,14.97
2022-08-17T07:08:17.099Z,14.99
2022-08-17T07:10:50.434Z,15.01
2022-08-17T07:13:35.188Z,15.00
2022-08-17T07:16:14.814Z,15.07
2022-08-17T07:18:43.837Z,15.08
2022-08-17T07:21:26.654Z,15.11
2022-08-17T07:24:08.093Z,15.11
2022-08-17T07:26:36.774Z,15.16
2022-08-17T07:29:05.083Z,15.17
2022-08-17T07:31:33.776Z,15.22
2022-08-17T07:34:08.497Z,15.20
2022-08-17T07:36:38.244Z,15.21
2022-08-17T07:39:06.674Z,15.23
2022-08-17T07:41:58.650Z,15.24
2022-08-17T07:44:28.323Z,15.31
2022-08-17T07:47:14.640Z,15.31
2022-08-17T07:49:47.012Z,15.35
2022-08-17T07:52:47.839Z,15.34
2022-08-17T07:55:30.830Z,15.37
2022-08-17T07:58:00.816Z,15.38
2022-08-17T08:00:32.422Z,15.42
2022-08-17T08:03:18.610Z,15.39
2022-08-17T08:05:53.179Z,15.38
2022-08-17T08:08:30.435Z,15.40
2022-08-17T08:11:02.441Z,15.39
2022-08-17T08:13:32.330Z,15.43
2022-08-17T08:16:25.882Z,15.41
2022-08-17T08:18:58.112Z,15.45
2022-08-17T08:21:37.435Z,15.46
2022-08-17T08:24:24.369Z,15.50
2022-08-17T08:27:08.944Z,15.50
2022-08-17T08:29:52.762Z,15.52
2022-08-17T08:32:28.707Z,15.54
2022-08-17T08:35:05.468Z,15.57
2022-08-17T08:37:45.053Z,15.60
2022-08-17T08:40:33.197Z,15.63
2022-08-17T08:43:12.670Z,15.68
2022-08-17T08:45:56.661Z,15.72
2022-08-17T08:49:10.116Z,15.71
2022-08-17T08:51:53.173Z,15.72
2022-08-17T08:54:39.661Z,15.81
2022-08-17T08:57:25.606Z,15.82
2022-08-17T09:00:09.050Z,15.85
2022-08-17T09:03:15.989Z,15.87
2022-08-17T09:06:01.851Z,15.92
2022-08-17T09:08:38.001Z,15.94
2022-08-17T09:11:12.633Z,15.99
2022-08-17T09:13:55.524Z,15.99
2022-08-17T09:16:29.871Z,15.99
2022-08-17T09:19:05.638Z,16.05
2022-08-17T09:21:47.686Z,16.14
2022-08-17T09:24:25.164Z,16.18
2022-08-17T09:26:59.222Z,16.22
2022-08-17T09:29:35.275Z,16.27
2022-08-17T09:32:10.884Z,16.28
2022-08-17T09:34:47.019Z,16.33
2022-08-17T09:37:23.666Z,16.39
2022-08-17T09:40:04.829Z,16.46
2022-08-17T09:42:41.101Z,16.50
2022-08-17T09:45:26.302Z,16.52
2022-08-17T09:48:00.748Z,16.54
2022-08-17T09:51:03.893Z,16.59
2022-08-17T09:53:24.008Z,16.63
2022-08-17T09:56:07.873Z,16.64
2022-08-17T09:58:47.825Z,16.60
2022-08-17T10:01:27.411Z,16.63
2022-08-17T10:04:16.877Z,16.61
2022-08-17T10:06:57.820Z,16.63
2022-08-17T10:09:45.244Z,16.62
2022-08-17T10:12:30.059Z,16.63
2022-08-17T10:15:15.407Z,16.65
2022-08-17T10:18:07.490Z,16.64
2022-08-17T10:20:48.196Z,16.74
2022-08-17T10:23:39.658Z,16.76
2022-08-17T10:26:15.599Z,16.84
2022-08-17T10:28:50.891Z,16.85
2022-08-17T10:31:40.049Z,16.85
2022-08-17T10:34:41.823Z,16.86
2022-08-17T10:37:29.481Z,16.90
2022-08-17T10:40:11.583Z,16.98
2022-08-17T10:42:50.345Z,17.02
2022-08-17T10:45:26.409Z,16.99
2022-08-17T10:48:05.325Z,17.01
2022-08-17T10:50:58.844Z,16.98
2022-08-17T10:54:01.829Z,17.00
2022-08-17T10:56:45.712Z,17.07
2022-08-17T10:59:50.026Z,17.13
2022-08-17T11:02:26.243Z,17.24
2022-08-17T11:05:07.840Z,17.37
2022-08-17T11:07:47.144Z,17.46
2022-08-17T11:10:52.183Z,17.53
2022-08-17T11:13:30.663Z,17.63
2022-08-17T11:16:12.517Z,17.71
2022-08-17T11:19:14.136Z,17.78
2022-08-17T11:22:18.496Z,17.77
2022-08-17T11:24:51.399Z,17.82
2022-08-17T11:27:27.801Z,17.82
2022-08-17T11:30:02.200Z,17.77
2022-08-17T11:32:38.998Z,17.79
2022-08-17T11:35:30.429Z,17.75
2022-08-17T11:38:16.440Z,17.74
2022-08-17T11:41:08.272Z,17.77
2022-08-17T11:44:02.018Z,17.78
2022-08-17T11:46:59.908Z,17.81
2022-08-17T11:50:01.766Z,17.92
2022-08-17T11:52:37.081Z,17.94
2022-08-17T11:55:34.111Z,17.98
2022-08-17T11:58:02.123Z,17.94
2022-08-17T12:00:51.987Z,17.96
2022-08-17T12:03:39.334Z,17.99
2022-08-17T12:06:13.640Z,18.03
2022-08-17T12:08:43.538Z,18.05
2022-08-17T12:12:01.622Z,18.11
2022-08-17T12:14:15.044Z,18.12
2022-08-17T12:16:46.075Z,18.14
2022-08-17T12:19:23.911Z,18.21
2022-08-17T12:21:59.259Z,18.24
2022-08-17T12:24:46.623Z,18.30
2022-08-17T12:27:47.636Z,18.40
2022-08-17T12:30:17.097Z,18.56
2022-08-17T12:32:47.781Z,18.67
2022-08-17T12:35:23.034Z,18.82
2022-08-17T12:37:51.802Z,18.93
2022-08-17T12:40:23.626Z,18.99
2022-08-17T12:42:57.493Z,18.96
2022-08-17T12:45:29.390Z,18.89
2022-08-17T12:48:07.897Z,18.68
2022-08-17T12:50:38.590Z,18.56
2022-08-17T12:53:12.720Z,18.45
2022-08-17T12:55:41.587Z,18.36
2022-08-17T12:58:14.803Z,18.34
2022-08-17T13:00:51.832Z,18.36
2022-08-17T13:03:23.137Z,18.39
2022-08-17T13:06:02.119Z,18.47
2022-08-17T13:08:33.125Z,18.53
2022-08-17T13:11:04.997Z,18.57
2022-08-17T13:13:34.931Z,18.57
2022-08-17T13:16:07.090Z,18.55
2022-08-17T13:18:43.548Z,18.53
2022-08-17T13:21:27.393Z,18.50
2022-08-17T13:23:58.531Z,18.46
2022-08-17T13:26:34.115Z,18.47
2022-08-17T13:29:03.988Z,18.42
2022-08-17T13:31:41.406Z,18.43
2022-08-17T13:34:56.175Z,18.38
2022-08-17T13:37:32.834Z,18.38
2022-08-17T13:40:22.722Z,18.36
2022-08-17T13:42:54.080Z,18.36
2022-08-17T13:45:38.901Z,18.37
2022-08-17T13:48:17.946Z,18.45
2022-08-17T13:50:48.464Z,18.55
2022-08-17T13:53:21.888Z,18.63
2022-08-17T13:55:53.026Z,18.68
2022-08-17T13:58:24.256Z,18.88
2022-08-17T14:00:52.973Z,19.03
2022-08-17T14:03:23.083Z,19.08
2022-08-17T14:05:53.271Z,19.09
2022-08-17T14:08:21.920Z,19.12
2022-08-17T14:10:58.809Z,19.26
2022-08-17T14:13:28.710Z,19.34
2022-08-17T14:15:57.110Z,19.31
2022-08-17T14:18:55.249Z,19.26
2022-08-17T14:21:15.767Z,19.23
2022-08-17T14:23:49.072Z,19.18
2022-08-17T14:26:23.530Z,19.15
2022-08-17T14:28:56.279Z,19.13
2022-08-17T14:31:26.773Z,19.07
2022-08-17T14:33:58.241Z,19.06
2022-08-17T14:36:26.095Z,19.05
2022-08-17T14:38:54.329Z,19.08
2022-08-17T14:41:23.573Z,19.03
2022-08-17T14:43:53.045Z,19.05
2022-08-17T14:46:21.538Z,19.04
2022-08-17T14:48:57.166Z,19.07
2022-08-17T14:51:30.170Z,19.10
2022-08-17T14:53:58.449Z,19.13
2022-08-17T14:56:27.375Z,19.24
2022-08-17T14:58:59.996Z,19.31
2022-08-17T15:01:28.824Z,19.37
2022-08-17T15:03:57.282Z,19.45
2022-08-17T15:06:26.779Z,19.45
2022-08-17T15:08:54.922Z,19.42
2022-08-17T15:11:23.200Z,19.38
2022-08-17T15:13:52.395Z,19.33
2022-08-17T15:16:21.663Z,19.30
2022-08-17T15:18:50.258Z,19.30
2022-08-17T15:21:18.779Z,19.30
2022-08-17T15:23:48.484Z,19.32
2022-08-17T15:26:16.920Z,19.24
2022-08-17T15:28:49.967Z,19.21
2022-08-17T15:31:31.995Z,19.11
2022-08-17T15:34:00.664Z,19.02
2022-08-17T15:36:28.998Z,19.00
2022-08-17T15:38:58.923Z,18.99
2022-08-17T15:41:28.235Z,18.97
2022-08-17T15:43:57.018Z,19.00
2022-08-17T15:46:27.212Z,19.06
2022-08-17T15:48:59.454Z,19.15
2022-08-17T15:51:30.304Z,19.21
2022-08-17T15:54:04.516Z,19.24
2022-08-17T15:56:48.013Z,19.21
2022-08-17T15:59:16.179Z,19.17
2022-08-17T16:03:01.812Z,19.19
2022-08-17T16:04:32.547Z,19.20
2022-08-17T16:07:01.540Z,19.11
2022-08-17T16:09:31.106Z,19.11
2022-08-17T16:11:59.327Z,19.13
2022-08-17T16:14:34.995Z,19.06
2022-08-17T16:17:03.594Z,19.01
2022-08-17T16:19:32.585Z,19.01
2022-08-17T16:22:00.881Z,18.95
2022-08-17T16:24:31.506Z,18.94
2022-08-17T16:27:00.182Z,18.84
2022-08-17T16:29:28.537Z,18.93
2022-08-17T16:31:57.159Z,18.94
2022-08-17T16:34:25.858Z,18.94
2022-08-17T16:36:56.471Z,18.89
2022-08-17T16:39:26.821Z,18.87
2022-08-17T16:41:56.669Z,18.94
2022-08-17T16:44:25.951Z,18.92
2022-08-17T16:46:54.328Z,18.88
2022-08-17T16:49:36.173Z,18.77
2022-08-17T16:52:10.450Z,18.74
2022-08-17T16:54:43.975Z,18.75
2022-08-17T16:57:15.812Z,18.71
2022-08-17T16:59:48.012Z,18.58
2022-08-17T17:02:17.563Z,18.53
2022-08-17T17:04:52.929Z,18.49
2022-08-17T17:07:34.978Z,18.43
2022-08-17T17:10:08.917Z,18.38
2022-08-17T17:13:02.119Z,18.24
2022-08-17T17:15:41.512Z,18.14
2022-08-17T17:18:13.377Z,18.12
2022-08-17T17:20:47.545Z,18.06
2022-08-17T17:23:33.460Z,18.08
2022-08-17T17:26:11.126Z,18.04
2022-08-17T17:28:49.194Z,18.02
2022-08-17T17:31:20.575Z,18.08
2022-08-17T17:33:53.070Z,18.02
2022-08-17T17:36:27.256Z,18.02
2022-08-17T17:39:01.603Z,18.02
2022-08-17T17:41:38.425Z,18.04
2022-08-17T17:44:12.330Z,18.03
2022-08-17T17:46:47.197Z,18.00
2022-08-17T17:49:18.650Z,17.92
2022-08-17T17:52:09.146Z,17.85
2022-08-17T17:54:52.404Z,17.91
2022-08-17T17:57:30.151Z,17.86
2022-08-17T18:00:08.484Z,17.77
2022-08-17T18:02:51.534Z,17.78
2022-08-17T18:05:36.144Z,17.76
2022-08-17T18:08:16.540Z,17.75
2022-08-17T18:10:51.662Z,17.72
2022-08-17T18:13:30.169Z,17.70
2022-08-17T18:16:01.225Z,17.68
2022-08-17T18:18:38.091Z,17.67
2022-08-17T18:21:15.995Z,17.67
2022-08-17T18:23:51.014Z,17.65
2022-08-17T18:26:44.713Z,17.66
2022-08-17T18:29:27.287Z,17.60
2022-08-17T18:34:51.411Z,17.53
2022-08-17T18:37:45.190Z,17.49
2022-08-17T18:40:30.265Z,17.47
2022-08-17T18:43:06.471Z,17.44
2022-08-17T18:45:40.836Z,17.42
2022-08-17T18:48:20.945Z,17.36
2022-08-17T18:50:53.554Z,17.32
2022-08-17T18:53:33.939Z,17.30
2022-08-17T18:56:30.725Z,17.32
2022-08-17T18:59:10.228Z,17.33
2022-08-17T19:01:53.542Z,17.33
2022-08-17T19:04:35.412Z,17.31
2022-08-17T19:07:13.416Z,17.23
2022-08-17T19:09:45.470Z,17.23
2022-08-17T19:12:27.312Z,17.25
2022-08-17T19:14:57.827Z,17.24
2022-08-17T19:17:35.497Z,17.24
2022-08-17T19:20:11.576Z,17.26
2022-08-17T19:22:55.603Z,17.22
2022-08-17T19:25:28.243Z,17.19
2022-08-17T19:28:03.095Z,17.14
2022-08-17T19:30:33.009Z,17.09
2022-08-17T19:33:03.406Z,17.09
2022-08-17T19:35:42.232Z,17.06
2022-08-17T19:38:20.917Z,17.06
2022-08-17T19:41:04.509Z,17.06
2022-08-17T19:43:57.578Z,17.05
2022-08-17T19:46:36.413Z,17.03
2022-08-17T19:49:14.653Z,17.01
2022-08-17T19:51:48.844Z,17.00
2022-08-17T19:54:25.682Z,16.99
2022-08-17T19:56:59.337Z,16.97
2022-08-17T19:59:49.096Z,16.93
2022-08-17T20:02:27.895Z,16.93
2022-08-17T20:05:00.108Z,16.88
2022-08-17T20:07:36.927Z,16.86
2022-08-17T20:10:09.159Z,16.84
2022-08-17T20:12:39.468Z,16.83
2022-08-17T20:15:11.585Z,16.82
2022-08-17T20:17:42.738Z,16.82
2022-08-17T20:20:24.125Z,16.84
2022-08-17T20:22:59.585Z,16.85
2022-08-17T20:25:37.129Z,16.86
2022-08-17T20:28:17.680Z,16.87
2022-08-17T20:30:46.446Z,16.86
2022-08-17T20:33:26.870Z,16.85
2022-08-17T20:36:15.815Z,16.84
2022-08-17T20:38:46.365Z,16.86
2022-08-17T20:41:18.444Z,16.87
2022-08-17T20:44:05.786Z,16.86
2022-08-17T20:46:57.320Z,16.90
2022-08-17T20:49:32.322Z,16.94
2022-08-17T20:52:07.744Z,16.90
2022-08-17T20:54:50.983Z,16.90
2022-08-17T20:57:50.898Z,16.91
2022-08-17T21:00:46.863Z,16.86
2022-08-17T21:03:51.768Z,16.89
2022-08-17T21:06:26.902Z,16.89
2022-08-17T21:08:59.020Z,16.89
2022-08-17T21:12:03.910Z,16.88
2022-08-17T21:15:02.038Z,16.88
2022-08-17T21:17:46.568Z,16.89
2022-08-17T21:20:32.501Z,16.86
2022-08-17T21:23:27.038Z,16.90
2022-08-17T21:26:17.457Z,16.90
2022-08-17T21:29:29.659Z,16.93
2022-08-17T21:32:19.245Z,16.91
2022-08-17T21:35:24.943Z,16.90
2022-08-17T21:37:57.575Z,16.90
2022-08-17T21:40:29.322Z,16.86
2022-08-17T21:43:01.599Z,16.88
2022-08-17T21:45:35.698Z,16.84
2022-08-17T21:48:16.256Z,16.82
2022-08-17T21:50:47.670Z,16.81
2022-08-17T21:53:27.028Z,16.78
2022-08-17T21:55:59.174Z,16.76
2022-08-17T21:58:31.433Z,16.72
2022-08-17T22:01:23.604Z,16.68
2022-08-17T22:04:20.770Z,16.63
2022-08-17T22:06:56.811Z,16.57
2022-08-17T22:09:27.820Z,16.54
2022-08-17T22:11:59.710Z,16.53
2022-08-17T22:14:51.714Z,16.51
2022-08-17T22:17:24.545Z,16.48
2022-08-17T22:19:56.491Z,16.49
2022-08-17T22:22:34.190Z,16.49
2022-08-17T22:25:05.801Z,16.48
2022-08-17T22:27:55.912Z,16.47
2022-08-17T22:30:37.968Z,16.49
2022-08-17T22:33:35.909Z,16.51
2022-08-17T22:36:24.601Z,16.52
2022-08-17T22:38:55.117Z,16.56
2022-08-17T22:41:42.278Z,16.58
2022-08-17T22:44:23.311Z,16.62
2022-08-17T22:47:25.555Z,16.63
2022-08-17T22:49:57.690Z,16.66
2022-08-17T22:52:35.606Z,16.70
2022-08-17T22:55:32.432Z,16.71
2022-08-17T22:58:28.412Z,16.71
2022-08-17T23:00:57.010Z,16.73
2022-08-17T23:03:28.107Z,16.74
2022-08-17T23:06:06.878Z,16.75
2022-08-17T23:08:43.699Z,16.75
2022-08-17T23:11:11.991Z,16.76
2022-08-17T23:13:40.482Z,16.77
2022-08-17T23:16:08.606Z,16.77
2022-08-17T23:18:37.534Z,16.81
2022-08-17T23:21:07.493Z,16.80
2022-08-17T23:23:38.168Z,16.82
2022-08-17T23:26:10.553Z,16.83
2022-08-17T23:28:41.149Z,16.83
2022-08-17T23:31:09.904Z,16.83
2022-08-17T23:33:40.939Z,16.84
2022-08-17T23:36:15.341Z,16.84
2022-08-17T23:38:46.920Z,16.86
2022-08-17T23:41:18.280Z,16.85
2022-08-17T23:43:49.516Z,16.85
2022-08-17T23:46:18.436Z,16.84
2022-08-17T23:48:46.794Z,16.88
2022-08-17T23:51:19.098Z,16.89
2022-08-17T23:53:52.987Z,16.90
2022-08-17T23:56:24.635Z,16.91
2022-08-17T23:58:54.851Z,16.91
